Aviation Digital Data Service (ADDS)

Output produced by METARs form (0123 UTC 24 May 2019)
found at http://www.aviationweather.gov/metar/data/
 
UTSB 240000Z 10006KT 9999 SCT050CB 14/11 Q1012 R19/190065 NOSIG
TAF UTSB 232300Z 2400/2424 VRB05KT 7000 FEW050CB 
     TEMPO 2400/2406 14012KT -SHRA SCT050CB BKN100 
     PROB40 
     TEMPO 2400/2406 TS OVC025CB 
     TEMPO 2406/2412 22014KT SCT033
       
UTSK 240100Z 10008KT 9999 OVC050CB 14/12 Q1014 R16///////
TAF UTSK 232353Z 2401/2410 11008KT 9999 BKN066CB BKN100 
     TEMPO 2401/2410 VRB10G20KT 5000 -TSRA SCT013 BKN050CB
       
UTSS 240100Z 28004KT 9999 -SHRA OVC062CB 11/10 Q1014 R27/19//55 NOSIG
TAF UTSS 232256Z 2400/2424 12010G20KT 9999 BKN066CB BKN100 
     TEMPO 2400/2406 VRB16G26KT 5000 -TSRA BR SCT009 BKN050CB
       
UTST 240100Z 05004KT 9999 BKN066CB 15/13 Q1014 R88/CLRD70 NOSIG
TAF UTST 232300Z 2400/2424 VRB06KT 6000 BKN060CB BKN100 
     TEMPO 2400/2410 12010G20KT BKN025
       
UTNU 240100Z VRB02KT CAVOK 12/06 Q1011 R31/CLRD70 NOSIG
TAF UTNU 232300Z 2400/2424 30008G18KT CAVOK 
     TEMPO 2400/2406 VRB04KT
       
UTTT 240100Z 16004KT CAVOK 16/08 Q1011 R08R/CLRD70 NOSIG
TAF UTTT 232300Z 2400/2424 17010KT 7000 FEW060CB SCT100 
     TEMPO 2410/2422 32012G22KT 4000 -SHRA BR BKN040CB OVC100 
     PROB40 
     TEMPO 2410/2422 TS OVC040CB